Indian River, New York
Current Conditions -  °F | °C
As of 7:58 AM on Thursday 23 Oct 2014 (Local Time) from KGTB Reporting Station
Overcast Overcast  
Wind Chill: 35°   Ceiling: 2500
Heat Index: 42°   Visibility: 10mi
Dew Point: 34°   Wind: 13mph
Humidity: 72%   Direction: 20°NNE
Pressure: 30.04"   Gusts: 22mph
Location:  43.9554°N, 75.2819°W
Report Text: KGTB 231158Z AUTO 02011G19KT 10SM OVC025 06/01 A3004 RMK AO2 SLP177 T00560010 10060 20048 55006
Loading
Personal Weather Stations






























Interactive Weather Map
Tropical Storm Tracking
New forecast layout! Learn more

10-Day Weather Forecast

Advertisements
Track Severe Weather on mobile